sensor_id;sensor_type;location;lat;lon;timestamp;temperature;humidity
19359;DHT22;9815;52.334;20.890;2023-05-29T00:02:21;10.30;99.90
19359;DHT22;9815;52.334;20.890;2023-05-29T00:04:49;10.30;99.90
19359;DHT22;9815;52.334;20.890;2023-05-29T00:07:18;10.30;99.90
19359;DHT22;9815;52.334;20.890;2023-05-29T00:09:47;10.30;99.90
19359;DHT22;9815;52.334;20.890;2023-05-29T00:12:15;10.20;99.90
19359;DHT22;9815;52.334;20.890;2023-05-29T00:14:43;10.10;99.90
19359;DHT22;9815;52.334;20.890;2023-05-29T00:17:11;10.10;99.90
19359;DHT22;9815;52.334;20.890;2023-05-29T00:19:43;10.00;99.90
19359;DHT22;9815;52.334;20.890;2023-05-29T00:22:11;9.90;99.90
19359;DHT22;9815;52.334;20.890;2023-05-29T00:24:39;9.90;99.90
19359;DHT22;9815;52.334;20.890;2023-05-29T00:27:08;9.90;99.90
19359;DHT22;9815;52.334;20.890;2023-05-29T00:29:37;9.70;99.90
19359;DHT22;9815;52.334;20.890;2023-05-29T00:32:06;9.80;99.90
19359;DHT22;9815;52.334;20.890;2023-05-29T00:34:34;9.80;99.90
19359;DHT22;9815;52.334;20.890;2023-05-29T00:37:02;9.80;99.90
19359;DHT22;9815;52.334;20.890;2023-05-29T00:39:31;9.70;99.90
19359;DHT22;9815;52.334;20.890;2023-05-29T00:41:59;9.60;99.90
19359;DHT22;9815;52.334;20.890;2023-05-29T00:44:28;9.50;99.90
19359;DHT22;9815;52.334;20.890;2023-05-29T00:46:57;9.60;99.90
19359;DHT22;9815;52.334;20.890;2023-05-29T00:49:25;9.50;99.90
19359;DHT22;9815;52.334;20.890;2023-05-29T00:51:54;9.40;99.90
19359;DHT22;9815;52.334;20.890;2023-05-29T00:54:26;9.40;99.90
19359;DHT22;9815;52.334;20.890;2023-05-29T00:56:57;9.50;99.90
19359;DHT22;9815;52.334;20.890;2023-05-29T00:59:30;9.40;99.90
19359;DHT22;9815;52.334;20.890;2023-05-29T01:01:59;9.40;99.90
19359;DHT22;9815;52.334;20.890;2023-05-29T01:04:27;9.30;99.90
19359;DHT22;9815;52.334;20.890;2023-05-29T01:06:55;9.20;99.90
19359;DHT22;9815;52.334;20.890;2023-05-29T01:09:24;9.30;99.90
19359;DHT22;9815;52.334;20.890;2023-05-29T01:11:59;9.20;99.90
19359;DHT22;9815;52.334;20.890;2023-05-29T01:14:36;9.20;99.90
19359;DHT22;9815;52.334;20.890;2023-05-29T01:17:15;9.20;99.90
19359;DHT22;9815;52.334;20.890;2023-05-29T01:20:06;9.20;99.90
19359;DHT22;9815;52.334;20.890;2023-05-29T01:22:51;9.10;99.90
19359;DHT22;9815;52.334;20.890;2023-05-29T01:25:28;9.00;99.90
19359;DHT22;9815;52.334;20.890;2023-05-29T01:28:00;9.00;99.90
19359;DHT22;9815;52.334;20.890;2023-05-29T01:30:30;9.00;99.90
19359;DHT22;9815;52.334;20.890;2023-05-29T01:32:59;9.00;99.90
19359;DHT22;9815;52.334;20.890;2023-05-29T01:35:29;9.00;99.90
19359;DHT22;9815;52.334;20.890;2023-05-29T01:37:57;9.20;99.90
19359;DHT22;9815;52.334;20.890;2023-05-29T01:40:25;9.00;99.90
19359;DHT22;9815;52.334;20.890;2023-05-29T01:42:53;9.20;99.90
19359;DHT22;9815;52.334;20.890;2023-05-29T01:45:23;9.00;99.90
19359;DHT22;9815;52.334;20.890;2023-05-29T01:47:52;9.00;99.90
19359;DHT22;9815;52.334;20.890;2023-05-29T01:50:22;9.00;99.90
19359;DHT22;9815;52.334;20.890;2023-05-29T01:52:51;9.00;99.90
19359;DHT22;9815;52.334;20.890;2023-05-29T01:55:19;8.90;99.90
19359;DHT22;9815;52.334;20.890;2023-05-29T01:57:49;8.90;99.90
19359;DHT22;9815;52.334;20.890;2023-05-29T02:00:18;8.90;99.90
19359;DHT22;9815;52.334;20.890;2023-05-29T02:02:48;8.80;99.90
19359;DHT22;9815;52.334;20.890;2023-05-29T02:05:17;8.80;99.90
19359;DHT22;9815;52.334;20.890;2023-05-29T02:07:45;8.80;99.90
19359;DHT22;9815;52.334;20.890;2023-05-29T02:10:13;8.90;99.90
19359;DHT22;9815;52.334;20.890;2023-05-29T02:12:41;8.80;99.90
19359;DHT22;9815;52.334;20.890;2023-05-29T02:15:10;8.70;99.90
19359;DHT22;9815;52.334;20.890;2023-05-29T02:17:38;8.70;99.90
19359;DHT22;9815;52.334;20.890;2023-05-29T02:20:10;8.70;99.90
19359;DHT22;9815;52.334;20.890;2023-05-29T02:22:38;8.70;99.90
19359;DHT22;9815;52.334;20.890;2023-05-29T02:25:07;8.60;99.90
19359;DHT22;9815;52.334;20.890;2023-05-29T02:27:35;8.60;99.90
19359;DHT22;9815;52.334;20.890;2023-05-29T02:30:04;8.50;99.90
19359;DHT22;9815;52.334;20.890;2023-05-29T02:32:33;8.50;99.90
19359;DHT22;9815;52.334;20.890;2023-05-29T02:35:01;8.50;99.90
19359;DHT22;9815;52.334;20.890;2023-05-29T02:37:31;8.50;99.90
19359;DHT22;9815;52.334;20.890;2023-05-29T02:39:59;8.60;99.90
19359;DHT22;9815;52.334;20.890;2023-05-29T02:42:27;8.50;99.90
19359;DHT22;9815;52.334;20.890;2023-05-29T02:44:55;8.50;99.90
19359;DHT22;9815;52.334;20.890;2023-05-29T02:47:23;8.60;99.90
19359;DHT22;9815;52.334;20.890;2023-05-29T02:49:51;8.50;99.90
19359;DHT22;9815;52.334;20.890;2023-05-29T02:52:20;8.50;99.90
19359;DHT22;9815;52.334;20.890;2023-05-29T02:54:51;8.50;99.90
19359;DHT22;9815;52.334;20.890;2023-05-29T02:57:20;8.50;99.90
19359;DHT22;9815;52.334;20.890;2023-05-29T02:59:48;8.50;99.90
19359;DHT22;9815;52.334;20.890;2023-05-29T03:02:17;8.50;99.90
19359;DHT22;9815;52.334;20.890;2023-05-29T03:04:45;8.60;99.90
19359;DHT22;9815;52.334;20.890;2023-05-29T03:07:13;8.50;99.90
19359;DHT22;9815;52.334;20.890;2023-05-29T03:09:41;8.60;99.90
19359;DHT22;9815;52.334;20.890;2023-05-29T03:12:11;8.60;99.90
19359;DHT22;9815;52.334;20.890;2023-05-29T03:14:39;8.60;99.90
19359;DHT22;9815;52.334;20.890;2023-05-29T03:17:11;8.60;99.90
19359;DHT22;9815;52.334;20.890;2023-05-29T03:19:39;8.60;99.90
19359;DHT22;9815;52.334;20.890;2023-05-29T03:22:07;8.60;99.90
19359;DHT22;9815;52.334;20.890;2023-05-29T03:24:37;8.70;99.90
19359;DHT22;9815;52.334;20.890;2023-05-29T03:27:05;8.70;99.90
19359;DHT22;9815;52.334;20.890;2023-05-29T03:29:37;8.80;99.90
19359;DHT22;9815;52.334;20.890;2023-05-29T03:32:06;8.80;99.90
19359;DHT22;9815;52.334;20.890;2023-05-29T03:34:35;8.90;99.90
19359;DHT22;9815;52.334;20.890;2023-05-29T03:37:05;8.90;99.90
19359;DHT22;9815;52.334;20.890;2023-05-29T03:39:33;9.00;99.90
19359;DHT22;9815;52.334;20.890;2023-05-29T03:42:03;9.00;99.90
19359;DHT22;9815;52.334;20.890;2023-05-29T03:44:31;9.10;99.90
19359;DHT22;9815;52.334;20.890;2023-05-29T03:47:01;9.10;99.90
19359;DHT22;9815;52.334;20.890;2023-05-29T03:49:33;9.20;99.90
19359;DHT22;9815;52.334;20.890;2023-05-29T03:52:03;9.30;99.90
19359;DHT22;9815;52.334;20.890;2023-05-29T03:54:32;9.40;99.90
19359;DHT22;9815;52.334;20.890;2023-05-29T03:57:02;9.40;99.90
19359;DHT22;9815;52.334;20.890;2023-05-29T03:59:31;9.60;99.90
19359;DHT22;9815;52.334;20.890;2023-05-29T04:02:02;9.60;99.90
19359;DHT22;9815;52.334;20.890;2023-05-29T04:04:30;9.60;99.90
19359;DHT22;9815;52.334;20.890;2023-05-29T04:06:59;9.70;99.90
19359;DHT22;9815;52.334;20.890;2023-05-29T04:09:27;9.80;99.90
19359;DHT22;9815;52.334;20.890;2023-05-29T04:11:55;9.90;99.90
19359;DHT22;9815;52.334;20.890;2023-05-29T04:14:23;10.00;99.90
19359;DHT22;9815;52.334;20.890;2023-05-29T04:16:51;10.00;99.90
19359;DHT22;9815;52.334;20.890;2023-05-29T04:19:21;10.20;99.90
19359;DHT22;9815;52.334;20.890;2023-05-29T04:21:49;10.30;99.90
19359;DHT22;9815;52.334;20.890;2023-05-29T04:24:17;10.30;99.90
19359;DHT22;9815;52.334;20.890;2023-05-29T04:26:45;10.50;99.90
19359;DHT22;9815;52.334;20.890;2023-05-29T04:29:13;10.70;99.90
19359;DHT22;9815;52.334;20.890;2023-05-29T04:31:44;10.80;99.90
19359;DHT22;9815;52.334;20.890;2023-05-29T04:34:14;10.90;99.90
19359;DHT22;9815;52.334;20.890;2023-05-29T04:36:45;11.10;99.90
19359;DHT22;9815;52.334;20.890;2023-05-29T04:39:13;11.30;99.90
19359;DHT22;9815;52.334;20.890;2023-05-29T04:41:42;11.40;99.90
19359;DHT22;9815;52.334;20.890;2023-05-29T04:44:15;11.50;99.90
19359;DHT22;9815;52.334;20.890;2023-05-29T04:46:49;11.70;99.90
19359;DHT22;9815;52.334;20.890;2023-05-29T04:49:19;11.80;99.90
19359;DHT22;9815;52.334;20.890;2023-05-29T04:51:50;12.00;99.90
19359;DHT22;9815;52.334;20.890;2023-05-29T04:54:21;12.10;99.90
19359;DHT22;9815;52.334;20.890;2023-05-29T04:56:52;12.30;99.90
19359;DHT22;9815;52.334;20.890;2023-05-29T04:59:25;12.40;99.90
19359;DHT22;9815;52.334;20.890;2023-05-29T05:01:53;12.50;99.90
19359;DHT22;9815;52.334;20.890;2023-05-29T05:04:22;12.60;99.90
19359;DHT22;9815;52.334;20.890;2023-05-29T05:06:52;12.70;99.90
19359;DHT22;9815;52.334;20.890;2023-05-29T05:09:20;12.80;99.90
19359;DHT22;9815;52.334;20.890;2023-05-29T05:11:48;12.90;99.90
19359;DHT22;9815;52.334;20.890;2023-05-29T05:14:17;13.10;99.90
19359;DHT22;9815;52.334;20.890;2023-05-29T05:16:46;13.20;99.90
19359;DHT22;9815;52.334;20.890;2023-05-29T05:19:15;13.30;99.90
19359;DHT22;9815;52.334;20.890;2023-05-29T05:21:44;13.50;99.90
19359;DHT22;9815;52.334;20.890;2023-05-29T05:24:14;13.60;99.90
19359;DHT22;9815;52.334;20.890;2023-05-29T05:26:42;13.80;99.90
19359;DHT22;9815;52.334;20.890;2023-05-29T05:29:10;13.80;99.90
19359;DHT22;9815;52.334;20.890;2023-05-29T05:31:39;13.90;99.90
19359;DHT22;9815;52.334;20.890;2023-05-29T05:34:08;14.00;99.90
19359;DHT22;9815;52.334;20.890;2023-05-29T05:36:36;14.10;99.90
19359;DHT22;9815;52.334;20.890;2023-05-29T05:39:10;14.10;99.90
19359;DHT22;9815;52.334;20.890;2023-05-29T05:41:39;14.30;99.90
19359;DHT22;9815;52.334;20.890;2023-05-29T05:44:08;14.30;99.90
19359;DHT22;9815;52.334;20.890;2023-05-29T05:46:44;14.50;97.30
19359;DHT22;9815;52.334;20.890;2023-05-29T05:49:12;14.60;76.70
19359;DHT22;9815;52.334;20.890;2023-05-29T05:51:41;14.80;71.60
19359;DHT22;9815;52.334;20.890;2023-05-29T05:54:11;14.90;60.90
19359;DHT22;9815;52.334;20.890;2023-05-29T05:56:40;15.00;63.00
19359;DHT22;9815;52.334;20.890;2023-05-29T05:59:10;15.10;65.70
19359;DHT22;9815;52.334;20.890;2023-05-29T06:01:38;15.20;56.80
19359;DHT22;9815;52.334;20.890;2023-05-29T06:04:08;15.30;54.80
19359;DHT22;9815;52.334;20.890;2023-05-29T06:06:36;15.40;52.00
19359;DHT22;9815;52.334;20.890;2023-05-29T06:09:05;15.50;51.30
19359;DHT22;9815;52.334;20.890;2023-05-29T06:11:34;15.50;53.20
19359;DHT22;9815;52.334;20.890;2023-05-29T06:14:04;15.60;52.00
19359;DHT22;9815;52.334;20.890;2023-05-29T06:16:33;15.70;51.00
19359;DHT22;9815;52.334;20.890;2023-05-29T06:19:01;15.80;51.80
19359;DHT22;9815;52.334;20.890;2023-05-29T06:21:40;15.90;60.30
19359;DHT22;9815;52.334;20.890;2023-05-29T06:24:09;16.00;53.80
19359;DHT22;9815;52.334;20.890;2023-05-29T06:26:38;16.00;56.00
19359;DHT22;9815;52.334;20.890;2023-05-29T06:29:10;16.00;55.80
19359;DHT22;9815;52.334;20.890;2023-05-29T06:31:38;16.20;53.20
19359;DHT22;9815;52.334;20.890;2023-05-29T06:34:07;16.30;48.30
19359;DHT22;9815;52.334;20.890;2023-05-29T06:36:36;16.40;40.30
19359;DHT22;9815;52.334;20.890;2023-05-29T06:39:05;16.50;37.40
19359;DHT22;9815;52.334;20.890;2023-05-29T06:41:33;16.60;43.20
19359;DHT22;9815;52.334;20.890;2023-05-29T06:44:01;16.70;45.40
19359;DHT22;9815;52.334;20.890;2023-05-29T06:46:32;16.70;49.30
19359;DHT22;9815;52.334;20.890;2023-05-29T06:49:01;16.70;43.80
19359;DHT22;9815;52.334;20.890;2023-05-29T06:51:33;16.90;36.70
19359;DHT22;9815;52.334;20.890;2023-05-29T06:54:37;17.00;36.10
19359;DHT22;9815;52.334;20.890;2023-05-29T06:57:05;17.10;37.00
19359;DHT22;9815;52.334;20.890;2023-05-29T06:59:38;17.30;37.40
19359;DHT22;9815;52.334;20.890;2023-05-29T07:02:08;17.40;31.70
19359;DHT22;9815;52.334;20.890;2023-05-29T07:04:38;17.40;38.20
19359;DHT22;9815;52.334;20.890;2023-05-29T07:07:06;17.40;36.60
19359;DHT22;9815;52.334;20.890;2023-05-29T07:09:36;17.50;30.10
19359;DHT22;9815;52.334;20.890;2023-05-29T07:12:06;17.60;33.00
19359;DHT22;9815;52.334;20.890;2023-05-29T07:14:34;17.60;32.80
19359;DHT22;9815;52.334;20.890;2023-05-29T07:17:02;17.70;29.80
19359;DHT22;9815;52.334;20.890;2023-05-29T07:19:33;17.70;29.50
19359;DHT22;9815;52.334;20.890;2023-05-29T07:22:04;17.80;29.20
19359;DHT22;9815;52.334;20.890;2023-05-29T07:24:32;18.00;29.70
19359;DHT22;9815;52.334;20.890;2023-05-29T07:27:03;18.20;27.40
19359;DHT22;9815;52.334;20.890;2023-05-29T07:29:32;18.30;27.20
19359;DHT22;9815;52.334;20.890;2023-05-29T07:32:00;18.30;27.10
19359;DHT22;9815;52.334;20.890;2023-05-29T07:34:30;18.50;25.60
19359;DHT22;9815;52.334;20.890;2023-05-29T07:37:00;18.60;25.80
19359;DHT22;9815;52.334;20.890;2023-05-29T07:39:31;18.80;25.80
19359;DHT22;9815;52.334;20.890;2023-05-29T07:42:04;18.90;26.30
19359;DHT22;9815;52.334;20.890;2023-05-29T07:44:34;19.30;26.20
19359;DHT22;9815;52.334;20.890;2023-05-29T07:47:02;19.50;23.90
19359;DHT22;9815;52.334;20.890;2023-05-29T07:49:38;20.00;22.60
19359;DHT22;9815;52.334;20.890;2023-05-29T07:52:08;20.30;22.40
19359;DHT22;9815;52.334;20.890;2023-05-29T07:54:37;20.50;22.60
19359;DHT22;9815;52.334;20.890;2023-05-29T07:57:08;20.70;23.10
19359;DHT22;9815;52.334;20.890;2023-05-29T07:59:41;20.90;23.70
19359;DHT22;9815;52.334;20.890;2023-05-29T08:02:10;21.20;22.00
19359;DHT22;9815;52.334;20.890;2023-05-29T08:04:52;21.30;21.60
19359;DHT22;9815;52.334;20.890;2023-05-29T08:07:23;21.60;21.40
19359;DHT22;9815;52.334;20.890;2023-05-29T08:09:53;21.90;20.00
19359;DHT22;9815;52.334;20.890;2023-05-29T08:12:22;22.00;20.30
19359;DHT22;9815;52.334;20.890;2023-05-29T08:14:54;22.30;20.30
19359;DHT22;9815;52.334;20.890;2023-05-29T08:17:22;22.30;19.90
19359;DHT22;9815;52.334;20.890;2023-05-29T08:19:50;22.00;18.10
19359;DHT22;9815;52.334;20.890;2023-05-29T08:22:18;22.10;19.30
19359;DHT22;9815;52.334;20.890;2023-05-29T08:24:49;21.80;18.90
19359;DHT22;9815;52.334;20.890;2023-05-29T08:27:17;21.80;18.50
19359;DHT22;9815;52.334;20.890;2023-05-29T08:29:45;21.70;18.80
19359;DHT22;9815;52.334;20.890;2023-05-29T08:32:13;22.10;20.10
19359;DHT22;9815;52.334;20.890;2023-05-29T08:34:41;22.20;20.20
19359;DHT22;9815;52.334;20.890;2023-05-29T08:37:12;22.40;20.30
19359;DHT22;9815;52.334;20.890;2023-05-29T08:39:40;22.60;19.20
19359;DHT22;9815;52.334;20.890;2023-05-29T08:42:13;22.70;16.60
19359;DHT22;9815;52.334;20.890;2023-05-29T08:44:47;22.90;17.80
19359;DHT22;9815;52.334;20.890;2023-05-29T08:47:17;23.40;18.10
19359;DHT22;9815;52.334;20.890;2023-05-29T08:49:52;23.30;15.90
19359;DHT22;9815;52.334;20.890;2023-05-29T08:52:23;23.20;14.80
19359;DHT22;9815;52.334;20.890;2023-05-29T08:54:52;23.20;14.60
19359;DHT22;9815;52.334;20.890;2023-05-29T08:57:22;23.70;13.90
19359;DHT22;9815;52.334;20.890;2023-05-29T08:59:51;24.20;14.40
19359;DHT22;9815;52.334;20.890;2023-05-29T09:02:19;24.20;15.00
19359;DHT22;9815;52.334;20.890;2023-05-29T09:04:48;24.30;13.80
19359;DHT22;9815;52.334;20.890;2023-05-29T09:07:16;24.50;13.90
19359;DHT22;9815;52.334;20.890;2023-05-29T09:09:45;25.10;12.30
19359;DHT22;9815;52.334;20.890;2023-05-29T09:12:13;24.90;13.30
19359;DHT22;9815;52.334;20.890;2023-05-29T09:14:44;24.70;12.50
19359;DHT22;9815;52.334;20.890;2023-05-29T09:17:13;24.30;12.90
19359;DHT22;9815;52.334;20.890;2023-05-29T09:19:42;24.30;13.00
19359;DHT22;9815;52.334;20.890;2023-05-29T09:22:13;24.70;13.50
19359;DHT22;9815;52.334;20.890;2023-05-29T09:24:47;25.30;12.70
19359;DHT22;9815;52.334;20.890;2023-05-29T09:27:18;25.80;12.30
19359;DHT22;9815;52.334;20.890;2023-05-29T09:29:48;26.10;11.60
19359;DHT22;9815;52.334;20.890;2023-05-29T09:32:17;26.30;9.50
19359;DHT22;9815;52.334;20.890;2023-05-29T09:34:46;26.60;10.50
19359;DHT22;9815;52.334;20.890;2023-05-29T09:37:14;26.70;10.60
19359;DHT22;9815;52.334;20.890;2023-05-29T09:39:45;26.60;11.00
19359;DHT22;9815;52.334;20.890;2023-05-29T09:42:15;26.50;10.90
19359;DHT22;9815;52.334;20.890;2023-05-29T09:44:45;26.60;12.10
19359;DHT22;9815;52.334;20.890;2023-05-29T09:47:17;26.50;9.60
19359;DHT22;9815;52.334;20.890;2023-05-29T09:49:45;26.90;10.90
19359;DHT22;9815;52.334;20.890;2023-05-29T09:52:14;27.00;10.70
19359;DHT22;9815;52.334;20.890;2023-05-29T09:54:43;26.80;11.20
19359;DHT22;9815;52.334;20.890;2023-05-29T09:57:13;26.90;12.00
19359;DHT22;9815;52.334;20.890;2023-05-29T09:59:43;26.70;9.30
19359;DHT22;9815;52.334;20.890;2023-05-29T10:02:16;25.80;11.90
19359;DHT22;9815;52.334;20.890;2023-05-29T10:04:46;25.40;12.80
19359;DHT22;9815;52.334;20.890;2023-05-29T10:07:25;25.70;14.20
19359;DHT22;9815;52.334;20.890;2023-05-29T10:09:59;25.30;14.30
19359;DHT22;9815;52.334;20.890;2023-05-29T10:12:29;25.20;12.70
19359;DHT22;9815;52.334;20.890;2023-05-29T10:14:59;25.30;13.10
19359;DHT22;9815;52.334;20.890;2023-05-29T10:17:33;25.10;14.60
19359;DHT22;9815;52.334;20.890;2023-05-29T10:20:05;24.40;14.00
19359;DHT22;9815;52.334;20.890;2023-05-29T10:22:37;25.10;15.80
19359;DHT22;9815;52.334;20.890;2023-05-29T10:25:09;25.40;13.70
19359;DHT22;9815;52.334;20.890;2023-05-29T10:27:37;25.30;13.50
19359;DHT22;9815;52.334;20.890;2023-05-29T10:30:10;25.00;14.80
19359;DHT22;9815;52.334;20.890;2023-05-29T10:32:52;25.10;14.10
19359;DHT22;9815;52.334;20.890;2023-05-29T10:35:29;24.70;14.30
19359;DHT22;9815;52.334;20.890;2023-05-29T10:38:04;24.70;12.70
19359;DHT22;9815;52.334;20.890;2023-05-29T10:40:38;23.60;14.40
19359;DHT22;9815;52.334;20.890;2023-05-29T10:43:07;23.50;15.70
19359;DHT22;9815;52.334;20.890;2023-05-29T10:45:55;23.90;14.90
19359;DHT22;9815;52.334;20.890;2023-05-29T10:48:44;23.90;14.80
19359;DHT22;9815;52.334;20.890;2023-05-29T10:51:27;24.20;14.60
19359;DHT22;9815;52.334;20.890;2023-05-29T10:53:55;24.00;14.80
19359;DHT22;9815;52.334;20.890;2023-05-29T10:56:28;24.80;14.60
19359;DHT22;9815;52.334;20.890;2023-05-29T10:59:01;25.10;14.60
19359;DHT22;9815;52.334;20.890;2023-05-29T11:01:44;25.10;13.00
19359;DHT22;9815;52.334;20.890;2023-05-29T11:04:31;25.80;15.20
19359;DHT22;9815;52.334;20.890;2023-05-29T11:07:00;25.90;12.90
19359;DHT22;9815;52.334;20.890;2023-05-29T11:09:34;26.00;12.80
19359;DHT22;9815;52.334;20.890;2023-05-29T11:12:16;26.30;11.90
19359;DHT22;9815;52.334;20.890;2023-05-29T11:14:56;26.10;11.50
19359;DHT22;9815;52.334;20.890;2023-05-29T11:17:43;26.60;11.00
19359;DHT22;9815;52.334;20.890;2023-05-29T11:20:27;26.50;11.50
19359;DHT22;9815;52.334;20.890;2023-05-29T11:23:02;25.80;12.80
19359;DHT22;9815;52.334;20.890;2023-05-29T11:25:34;25.60;11.80
19359;DHT22;9815;52.334;20.890;2023-05-29T11:28:04;25.80;11.10
19359;DHT22;9815;52.334;20.890;2023-05-29T11:30:46;26.10;11.70
19359;DHT22;9815;52.334;20.890;2023-05-29T11:33:23;25.50;11.80
19359;DHT22;9815;52.334;20.890;2023-05-29T11:35:59;25.80;11.60
19359;DHT22;9815;52.334;20.890;2023-05-29T11:38:28;26.40;10.50
19359;DHT22;9815;52.334;20.890;2023-05-29T11:40:57;26.80;11.80
19359;DHT22;9815;52.334;20.890;2023-05-29T11:43:25;27.30;11.30
19359;DHT22;9815;52.334;20.890;2023-05-29T11:45:54;27.00;10.70
19359;DHT22;9815;52.334;20.890;2023-05-29T11:48:23;27.00;11.50
19359;DHT22;9815;52.334;20.890;2023-05-29T11:50:52;27.00;10.10
19359;DHT22;9815;52.334;20.890;2023-05-29T11:53:21;27.30;10.80
19359;DHT22;9815;52.334;20.890;2023-05-29T11:55:51;27.40;11.00
19359;DHT22;9815;52.334;20.890;2023-05-29T11:58:20;27.20;10.90
19359;DHT22;9815;52.334;20.890;2023-05-29T12:00:49;26.40;11.30
19359;DHT22;9815;52.334;20.890;2023-05-29T12:03:18;26.30;11.10
19359;DHT22;9815;52.334;20.890;2023-05-29T12:05:48;26.00;11.90
19359;DHT22;9815;52.334;20.890;2023-05-29T12:08:22;26.30;11.80
19359;DHT22;9815;52.334;20.890;2023-05-29T12:10:52;26.30;12.40
19359;DHT22;9815;52.334;20.890;2023-05-29T12:13:21;26.20;11.40
19359;DHT22;9815;52.334;20.890;2023-05-29T12:15:54;25.40;11.40
19359;DHT22;9815;52.334;20.890;2023-05-29T12:18:23;25.40;13.00
19359;DHT22;9815;52.334;20.890;2023-05-29T12:20:57;25.00;13.50
19359;DHT22;9815;52.334;20.890;2023-05-29T12:23:27;24.60;13.30
19359;DHT22;9815;52.334;20.890;2023-05-29T12:25:56;24.50;15.00
19359;DHT22;9815;52.334;20.890;2023-05-29T12:28:24;24.60;12.70
19359;DHT22;9815;52.334;20.890;2023-05-29T12:30:58;25.40;12.10
19359;DHT22;9815;52.334;20.890;2023-05-29T12:33:31;26.30;12.70
19359;DHT22;9815;52.334;20.890;2023-05-29T12:36:04;27.10;11.10
19359;DHT22;9815;52.334;20.890;2023-05-29T12:38:46;27.60;11.80
19359;DHT22;9815;52.334;20.890;2023-05-29T12:41:25;27.50;9.30
19359;DHT22;9815;52.334;20.890;2023-05-29T12:43:54;27.50;10.40
19359;DHT22;9815;52.334;20.890;2023-05-29T12:46:24;27.30;10.60
19359;DHT22;9815;52.334;20.890;2023-05-29T12:48:54;28.00;10.80
19359;DHT22;9815;52.334;20.890;2023-05-29T12:51:23;27.30;10.40
19359;DHT22;9815;52.334;20.890;2023-05-29T12:53:53;26.70;10.20
19359;DHT22;9815;52.334;20.890;2023-05-29T12:56:22;25.80;10.80
19359;DHT22;9815;52.334;20.890;2023-05-29T12:58:51;25.50;13.10
19359;DHT22;9815;52.334;20.890;2023-05-29T13:01:19;25.00;13.00
19359;DHT22;9815;52.334;20.890;2023-05-29T13:03:49;24.60;12.70
19359;DHT22;9815;52.334;20.890;2023-05-29T13:06:17;24.10;13.50
19359;DHT22;9815;52.334;20.890;2023-05-29T13:08:46;24.10;13.40
19359;DHT22;9815;52.334;20.890;2023-05-29T13:11:15;24.40;12.40
19359;DHT22;9815;52.334;20.890;2023-05-29T13:13:43;25.50;11.40
19359;DHT22;9815;52.334;20.890;2023-05-29T13:16:11;26.30;9.80
19359;DHT22;9815;52.334;20.890;2023-05-29T13:18:40;26.90;9.50
19359;DHT22;9815;52.334;20.890;2023-05-29T13:21:08;27.30;10.90
19359;DHT22;9815;52.334;20.890;2023-05-29T13:23:37;27.00;10.50
19359;DHT22;9815;52.334;20.890;2023-05-29T13:26:09;26.40;10.60
19359;DHT22;9815;52.334;20.890;2023-05-29T13:28:38;26.70;11.00
19359;DHT22;9815;52.334;20.890;2023-05-29T13:31:06;26.50;9.60
19359;DHT22;9815;52.334;20.890;2023-05-29T13:33:34;26.60;11.70
19359;DHT22;9815;52.334;20.890;2023-05-29T13:36:03;26.10;9.80
19359;DHT22;9815;52.334;20.890;2023-05-29T13:38:32;26.90;10.00
19359;DHT22;9815;52.334;20.890;2023-05-29T13:41:00;27.00;10.30
19359;DHT22;9815;52.334;20.890;2023-05-29T13:43:28;26.00;10.50
19359;DHT22;9815;52.334;20.890;2023-05-29T13:46:10;25.20;11.30
19359;DHT22;9815;52.334;20.890;2023-05-29T13:48:38;25.20;12.30
19359;DHT22;9815;52.334;20.890;2023-05-29T13:51:07;25.50;11.40
19359;DHT22;9815;52.334;20.890;2023-05-29T13:53:35;25.70;11.00
19359;DHT22;9815;52.334;20.890;2023-05-29T13:56:03;25.20;11.40
19359;DHT22;9815;52.334;20.890;2023-05-29T13:58:31;24.80;11.80
19359;DHT22;9815;52.334;20.890;2023-05-29T14:00:59;24.20;13.00
19359;DHT22;9815;52.334;20.890;2023-05-29T14:03:29;24.40;13.40
19359;DHT22;9815;52.334;20.890;2023-05-29T14:05:58;25.00;14.10
19359;DHT22;9815;52.334;20.890;2023-05-29T14:08:26;25.60;12.30
19359;DHT22;9815;52.334;20.890;2023-05-29T14:10:54;26.10;10.60
19359;DHT22;9815;52.334;20.890;2023-05-29T14:13:22;25.90;10.00
19359;DHT22;9815;52.334;20.890;2023-05-29T14:15:50;26.40;10.40
19359;DHT22;9815;52.334;20.890;2023-05-29T14:18:22;26.20;10.20
19359;DHT22;9815;52.334;20.890;2023-05-29T14:20:51;26.20;10.70
19359;DHT22;9815;52.334;20.890;2023-05-29T14:23:19;26.00;10.70
19359;DHT22;9815;52.334;20.890;2023-05-29T14:25:47;26.10;11.00
19359;DHT22;9815;52.334;20.890;2023-05-29T14:28:15;25.70;10.70
19359;DHT22;9815;52.334;20.890;2023-05-29T14:30:43;25.80;11.50
19359;DHT22;9815;52.334;20.890;2023-05-29T14:33:12;25.30;10.90
19359;DHT22;9815;52.334;20.890;2023-05-29T14:35:40;25.70;9.90
19359;DHT22;9815;52.334;20.890;2023-05-29T14:38:09;26.00;10.20
19359;DHT22;9815;52.334;20.890;2023-05-29T14:40:37;25.90;10.70
19359;DHT22;9815;52.334;20.890;2023-05-29T14:43:05;25.80;10.40
19359;DHT22;9815;52.334;20.890;2023-05-29T14:45:33;26.10;10.90
19359;DHT22;9815;52.334;20.890;2023-05-29T14:48:02;26.70;10.40
19359;DHT22;9815;52.334;20.890;2023-05-29T14:50:31;27.30;10.10
19359;DHT22;9815;52.334;20.890;2023-05-29T14:53:00;26.70;9.10
19359;DHT22;9815;52.334;20.890;2023-05-29T14:55:29;26.00;10.20
19359;DHT22;9815;52.334;20.890;2023-05-29T14:58:04;26.40;9.80
19359;DHT22;9815;52.334;20.890;2023-05-29T15:00:32;26.20;10.60
19359;DHT22;9815;52.334;20.890;2023-05-29T15:03:01;26.40;9.70
19359;DHT22;9815;52.334;20.890;2023-05-29T15:05:32;26.80;9.10
19359;DHT22;9815;52.334;20.890;2023-05-29T15:08:00;27.10;10.00
19359;DHT22;9815;52.334;20.890;2023-05-29T15:10:37;27.10;8.90
19359;DHT22;9815;52.334;20.890;2023-05-29T15:13:05;26.40;9.20
19359;DHT22;9815;52.334;20.890;2023-05-29T15:15:48;25.40;10.50
19359;DHT22;9815;52.334;20.890;2023-05-29T15:18:16;25.10;11.60
19359;DHT22;9815;52.334;20.890;2023-05-29T15:20:45;25.00;12.20
19359;DHT22;9815;52.334;20.890;2023-05-29T15:23:13;25.10;11.80
19359;DHT22;9815;52.334;20.890;2023-05-29T15:25:43;25.30;10.80
19359;DHT22;9815;52.334;20.890;2023-05-29T15:28:12;25.40;11.60
19359;DHT22;9815;52.334;20.890;2023-05-29T15:30:41;25.60;11.70
19359;DHT22;9815;52.334;20.890;2023-05-29T15:33:13;25.60;10.20
19359;DHT22;9815;52.334;20.890;2023-05-29T15:35:41;25.80;10.30
19359;DHT22;9815;52.334;20.890;2023-05-29T15:38:10;25.80;10.70
19359;DHT22;9815;52.334;20.890;2023-05-29T15:40:39;25.90;11.20
19359;DHT22;9815;52.334;20.890;2023-05-29T15:43:09;25.60;11.40
19359;DHT22;9815;52.334;20.890;2023-05-29T15:45:37;25.60;11.40
19359;DHT22;9815;52.334;20.890;2023-05-29T15:48:06;25.60;11.60
19359;DHT22;9815;52.334;20.890;2023-05-29T15:50:34;25.70;11.80
19359;DHT22;9815;52.334;20.890;2023-05-29T15:53:02;25.80;11.20
19359;DHT22;9815;52.334;20.890;2023-05-29T15:55:31;25.70;12.60